sensor_id;sensor_type;location;lat;lon;timestamp;pressure;altitude;pressure_sealevel;temperature;humidity
79048;BME280;68680;50.764;6.120;2023-09-19T00:00:57;-307655.31;;;38.74;0.00
79048;BME280;68680;50.764;6.120;2023-09-19T00:03:24;-307350.09;;;38.81;0.00
79048;BME280;68680;50.764;6.120;2023-09-19T00:05:50;-307350.09;;;38.81;0.00
79048;BME280;68680;50.764;6.120;2023-09-19T00:08:16;-307501.91;;;38.77;0.00
79048;BME280;68680;50.764;6.120;2023-09-19T00:10:43;-307204.59;;;38.85;0.00
79048;BME280;68680;50.764;6.120;2023-09-19T00:13:10;-307432.53;;;38.79;0.00
79048;BME280;68680;50.764;6.120;2023-09-19T00:15:38;-307288.66;;;38.82;0.00
79048;BME280;68680;50.764;6.120;2023-09-19T00:18:05;-307543.00;;;38.76;0.00
79048;BME280;68680;50.764;6.120;2023-09-19T00:20:35;-307220.69;;;38.84;0.00
79048;BME280;68680;50.764;6.120;2023-09-19T00:23:01;-307365.44;;;38.81;0.00
79048;BME280;68680;50.764;6.120;2023-09-19T00:25:27;-307398.66;;;38.80;0.00
79048;BME280;68680;50.764;6.120;2023-09-19T00:27:54;-307407.59;;;38.80;0.00
79048;BME280;68680;50.764;6.120;2023-09-19T00:30:20;-307491.28;;;38.77;0.00
79048;BME280;68680;50.764;6.120;2023-09-19T00:32:47;-307525.09;;;38.76;0.00
79048;BME280;68680;50.764;6.120;2023-09-19T00:35:14;-307261.81;;;38.82;0.00
79048;BME280;68680;50.764;6.120;2023-09-19T00:37:41;-307362.84;;;38.80;0.00
79048;BME280;68680;50.764;6.120;2023-09-19T00:40:09;-307193.84;;;38.84;0.00
79048;BME280;68680;50.764;6.120;2023-09-19T00:42:35;-307477.88;;;38.77;0.00
79048;BME280;68680;50.764;6.120;2023-09-19T00:45:01;-307243.91;;;38.82;0.00
79048;BME280;68680;50.764;6.120;2023-09-19T00:47:28;-307294.13;;;38.81;0.00
79048;BME280;68680;50.764;6.120;2023-09-19T00:49:54;-307026.44;;;38.88;0.00
79048;BME280;68680;50.764;6.120;2023-09-19T00:52:20;-306636.97;;;38.98;0.00
79048;BME280;68680;50.764;6.120;2023-09-19T00:54:48;-306465.31;;;39.02;0.00
79048;BME280;68680;50.764;6.120;2023-09-19T00:57:14;-306198.13;;;39.08;0.00
79048;BME280;68680;50.764;6.120;2023-09-19T00:59:40;-306189.09;;;39.09;0.00
79048;BME280;68680;50.764;6.120;2023-09-19T01:02:06;-305914.00;;;39.16;0.00
79048;BME280;68680;50.764;6.120;2023-09-19T01:04:32;-305903.75;;;39.15;0.00
79048;BME280;68680;50.764;6.120;2023-09-19T01:06:58;-305678.31;;;39.21;0.00
79048;BME280;68680;50.764;6.120;2023-09-19T01:09:24;-305575.31;;;39.24;0.00
79048;BME280;68680;50.764;6.120;2023-09-19T01:11:58;-305297.09;;;39.31;0.00
79048;BME280;68680;50.764;6.120;2023-09-19T01:14:34;-305131.19;;;39.35;0.00
79048;BME280;68680;50.764;6.120;2023-09-19T01:17:09;-305029.75;;;39.37;0.00
79048;BME280;68680;50.764;6.120;2023-09-19T01:20:17;-305130.47;;;39.34;0.00
79048;BME280;68680;50.764;6.120;2023-09-19T01:23:02;-304920.53;;;39.39;0.00
79048;BME280;68680;50.764;6.120;2023-09-19T01:26:07;-304509.25;;;39.50;0.00
79048;BME280;68680;50.764;6.120;2023-09-19T01:28:52;-304640.50;;;39.46;0.00
79048;BME280;68680;50.764;6.120;2023-09-19T01:31:22;-304509.25;;;39.50;0.00
79048;BME280;68680;50.764;6.120;2023-09-19T01:33:59;-304111.81;;;39.59;0.00
79048;BME280;68680;50.764;6.120;2023-09-19T01:36:28;-303695.94;;;39.69;0.00
79048;BME280;68680;50.764;6.120;2023-09-19T01:38:55;-304217.00;;;39.56;0.00
79048;BME280;68680;50.764;6.120;2023-09-19T01:41:37;-304182.94;;;39.57;0.00
79048;BME280;68680;50.764;6.120;2023-09-19T01:44:09;-303678.00;;;39.69;0.00
79048;BME280;68680;50.764;6.120;2023-09-19T01:46:41;-303472.56;;;39.74;0.00
79048;BME280;68680;50.764;6.120;2023-09-19T01:49:33;-303801.03;;;39.66;0.00
79048;BME280;68680;50.764;6.120;2023-09-19T01:52:10;-303366.25;;;39.77;0.00
79048;BME280;68680;50.764;6.120;2023-09-19T01:54:46;-303505.50;;;39.73;0.00
79048;BME280;68680;50.764;6.120;2023-09-19T01:57:22;-303429.19;;;39.75;0.00
79048;BME280;68680;50.764;6.120;2023-09-19T01:59:55;-303161.56;;;39.81;100.00
79048;BME280;68680;50.764;6.120;2023-09-19T02:02:25;-303553.34;;;39.71;0.00
79048;BME280;68680;50.764;6.120;2023-09-19T02:04:55;-303063.06;;;39.84;100.00
79048;BME280;68680;50.764;6.120;2023-09-19T02:07:20;-303474.13;;;39.73;0.00
79048;BME280;68680;50.764;6.120;2023-09-19T02:09:47;-303196.84;;;39.80;100.00
79048;BME280;68680;50.764;6.120;2023-09-19T02:12:13;-303196.84;;;39.80;100.00
79048;BME280;68680;50.764;6.120;2023-09-19T02:14:39;-303384.34;;;39.76;0.00
79048;BME280;68680;50.764;6.120;2023-09-19T02:17:04;-303353.66;;;39.76;0.00
79048;BME280;68680;50.764;6.120;2023-09-19T02:19:32;-303411.31;;;39.75;0.00
79048;BME280;68680;50.764;6.120;2023-09-19T02:21:58;-303792.75;;;39.65;0.00
79048;BME280;68680;50.764;6.120;2023-09-19T02:24:24;-303560.84;;;39.71;0.00
79048;BME280;68680;50.764;6.120;2023-09-19T02:26:49;-303472.69;;;39.73;0.00
79048;BME280;68680;50.764;6.120;2023-09-19T02:29:15;-303267.63;;;39.78;0.00
79048;BME280;68680;50.764;6.120;2023-09-19T02:31:41;-303214.25;;;39.79;100.00
79048;BME280;68680;50.764;6.120;2023-09-19T02:34:07;-303411.31;;;39.75;0.00
79048;BME280;68680;50.764;6.120;2023-09-19T02:36:34;-303072.34;;;39.83;100.00
79048;BME280;68680;50.764;6.120;2023-09-19T02:39:00;-303031.78;;;39.84;100.00
79048;BME280;68680;50.764;6.120;2023-09-19T02:41:26;-303748.09;;;39.66;0.00
79048;BME280;68680;50.764;6.120;2023-09-19T02:43:51;-303366.41;;;39.76;0.00
79048;BME280;68680;50.764;6.120;2023-09-19T02:46:17;-303178.97;;;39.80;100.00
79048;BME280;68680;50.764;6.120;2023-09-19T02:48:43;-303294.47;;;39.78;0.00
79048;BME280;68680;50.764;6.120;2023-09-19T02:51:09;-303027.91;;;39.84;100.00
79048;BME280;68680;50.764;6.120;2023-09-19T02:53:36;-302606.13;;;39.94;100.00
79048;BME280;68680;50.764;6.120;2023-09-19T02:56:02;-302811.50;;;39.90;100.00
79048;BME280;68680;50.764;6.120;2023-09-19T02:58:28;-303071.47;;;39.83;100.00
79048;BME280;68680;50.764;6.120;2023-09-19T03:00:53;-303490.56;;;39.73;0.00
79048;BME280;68680;50.764;6.120;2023-09-19T03:03:19;-303125.44;;;39.82;100.00
79048;BME280;68680;50.764;6.120;2023-09-19T03:05:45;-302987.25;;;39.85;100.00
79048;BME280;68680;50.764;6.120;2023-09-19T03:08:11;-303401.53;;;39.75;0.00
79048;BME280;68680;50.764;6.120;2023-09-19T03:10:38;-302920.94;;;39.87;100.00
79048;BME280;68680;50.764;6.120;2023-09-19T03:13:04;-303134.69;;;39.81;0.00
79048;BME280;68680;50.764;6.120;2023-09-19T03:15:29;-303063.06;;;39.84;100.00
79048;BME280;68680;50.764;6.120;2023-09-19T03:17:55;-302898.13;;;39.88;100.00
79048;BME280;68680;50.764;6.120;2023-09-19T03:20:21;-302255.06;;;40.03;100.00
79048;BME280;68680;50.764;6.120;2023-09-19T03:22:47;-301866.47;;;40.12;100.00
79048;BME280;68680;50.764;6.120;2023-09-19T03:25:13;-302273.69;;;40.02;100.00
79048;BME280;68680;50.764;6.120;2023-09-19T03:27:40;-301848.59;;;40.12;100.00
79048;BME280;68680;50.764;6.120;2023-09-19T03:30:07;-302110.31;;;40.05;100.00
79048;BME280;68680;50.764;6.120;2023-09-19T03:32:33;-301984.06;;;40.08;100.00
79048;BME280;68680;50.764;6.120;2023-09-19T03:34:59;-301948.97;;;40.09;100.00
79048;BME280;68680;50.764;6.120;2023-09-19T03:37:25;-301676.13;;;40.15;100.00
79048;BME280;68680;50.764;6.120;2023-09-19T03:39:51;-301957.94;;;40.09;100.00
79048;BME280;68680;50.764;6.120;2023-09-19T03:42:16;-301513.88;;;40.19;100.00
79048;BME280;68680;50.764;6.120;2023-09-19T03:44:44;-301276.59;;;40.25;100.00
79048;BME280;68680;50.764;6.120;2023-09-19T03:47:09;-301752.66;;;40.14;100.00
79048;BME280;68680;50.764;6.120;2023-09-19T03:49:35;-301802.53;;;40.12;100.00
79048;BME280;68680;50.764;6.120;2023-09-19T03:52:01;-301757.13;;;40.14;100.00
79048;BME280;68680;50.764;6.120;2023-09-19T03:54:27;-301586.06;;;40.17;100.00
79048;BME280;68680;50.764;6.120;2023-09-19T03:56:52;-301694.56;;;40.15;100.00
79048;BME280;68680;50.764;6.120;2023-09-19T03:59:18;-301518.38;;;40.19;100.00
79048;BME280;68680;50.764;6.120;2023-09-19T04:01:45;-301577.38;;;40.18;100.00
79048;BME280;68680;50.764;6.120;2023-09-19T04:04:11;-301248.50;;;40.26;100.00
79048;BME280;68680;50.764;6.120;2023-09-19T04:06:37;-301221.22;;;40.27;100.00
79048;BME280;68680;50.764;6.120;2023-09-19T04:09:04;-300824.53;;;40.36;100.00
79048;BME280;68680;50.764;6.120;2023-09-19T04:11:29;-301094.34;;;40.29;100.00
79048;BME280;68680;50.764;6.120;2023-09-19T04:13:55;-301412.84;;;40.22;100.00
79048;BME280;68680;50.764;6.120;2023-09-19T04:16:21;-301144.13;;;40.28;100.00
79048;BME280;68680;50.764;6.120;2023-09-19T04:18:48;-301175.97;;;40.28;100.00
79048;BME280;68680;50.764;6.120;2023-09-19T04:21:14;-301522.84;;;40.19;100.00
79048;BME280;68680;50.764;6.120;2023-09-19T04:23:40;-301094.34;;;40.29;100.00
79048;BME280;68680;50.764;6.120;2023-09-19T04:26:06;-301051.97;;;40.30;100.00
79048;BME280;68680;50.764;6.120;2023-09-19T04:28:32;-300672.44;;;40.40;100.00
79048;BME280;68680;50.764;6.120;2023-09-19T04:30:57;-300854.97;;;40.35;100.00
79048;BME280;68680;50.764;6.120;2023-09-19T04:33:23;-301056.50;;;40.30;100.00
79048;BME280;68680;50.764;6.120;2023-09-19T04:35:51;-300755.19;;;40.37;100.00
79048;BME280;68680;50.764;6.120;2023-09-19T04:38:17;-300622.44;;;40.40;100.00
79048;BME280;68680;50.764;6.120;2023-09-19T04:40:43;-300672.44;;;40.40;100.00
79048;BME280;68680;50.764;6.120;2023-09-19T04:43:09;-300654.50;;;40.40;100.00
79048;BME280;68680;50.764;6.120;2023-09-19T04:45:35;-300526.81;;;40.42;100.00
79048;BME280;68680;50.764;6.120;2023-09-19T04:48:00;-300232.66;;;40.49;100.00
79048;BME280;68680;50.764;6.120;2023-09-19T04:50:26;-300770.72;;;40.36;100.00
79048;BME280;68680;50.764;6.120;2023-09-19T04:52:53;-300582.16;;;40.41;100.00
79048;BME280;68680;50.764;6.120;2023-09-19T04:55:19;-300720.19;;;40.38;100.00
79048;BME280;68680;50.764;6.120;2023-09-19T04:57:46;-301025.06;;;40.30;100.00
79048;BME280;68680;50.764;6.120;2023-09-19T05:00:14;-301153.34;;;40.27;100.00
79048;BME280;68680;50.764;6.120;2023-09-19T05:02:41;-301104.41;;;40.28;100.00
79048;BME280;68680;50.764;6.120;2023-09-19T05:05:08;-301185.72;;;40.26;100.00
79048;BME280;68680;50.764;6.120;2023-09-19T05:07:34;-300582.03;;;40.40;100.00
79048;BME280;68680;50.764;6.120;2023-09-19T05:10:01;-300666.38;;;40.38;100.00
79048;BME280;68680;50.764;6.120;2023-09-19T05:12:27;-300940.97;;;40.31;100.00
79048;BME280;68680;50.764;6.120;2023-09-19T05:14:53;-300528.34;;;40.41;100.00
79048;BME280;68680;50.764;6.120;2023-09-19T05:17:18;-301041.03;;;40.28;100.00
79048;BME280;68680;50.764;6.120;2023-09-19T05:19:44;-300835.25;;;40.33;100.00
79048;BME280;68680;50.764;6.120;2023-09-19T05:22:10;-300205.81;;;40.48;100.00
79048;BME280;68680;50.764;6.120;2023-09-19T05:24:36;-300247.81;;;40.47;100.00
79048;BME280;68680;50.764;6.120;2023-09-19T05:27:03;-300639.47;;;40.38;100.00
79048;BME280;68680;50.764;6.120;2023-09-19T05:29:29;-300555.84;;;40.40;100.00
79048;BME280;68680;50.764;6.120;2023-09-19T05:31:55;-300261.31;;;40.46;100.00
79048;BME280;68680;50.764;6.120;2023-09-19T05:34:21;-300201.38;;;40.48;100.00
79048;BME280;68680;50.764;6.120;2023-09-19T05:36:46;-300100.88;;;40.50;100.00
79048;BME280;68680;50.764;6.120;2023-09-19T05:39:12;-300151.97;;;40.49;100.00
79048;BME280;68680;50.764;6.120;2023-09-19T05:41:38;-300178.91;;;40.48;100.00
79048;BME280;68680;50.764;6.120;2023-09-19T05:44:05;-299874.75;;;40.55;100.00
79048;BME280;68680;50.764;6.120;2023-09-19T05:46:31;-300165.50;;;40.48;100.00
79048;BME280;68680;50.764;6.120;2023-09-19T05:48:57;-299935.03;;;40.53;100.00
79048;BME280;68680;50.764;6.120;2023-09-19T05:51:23;-300008.69;;;40.52;100.00
79048;BME280;68680;50.764;6.120;2023-09-19T05:53:49;-300492.38;;;40.40;100.00
79048;BME280;68680;50.764;6.120;2023-09-19T05:56:14;-300086.75;;;40.50;100.00
79048;BME280;68680;50.764;6.120;2023-09-19T05:58:40;-300059.84;;;40.50;100.00
79048;BME280;68680;50.764;6.120;2023-09-19T06:01:08;-300547.56;;;40.39;100.00
79048;BME280;68680;50.764;6.120;2023-09-19T06:03:33;-300055.31;;;40.50;100.00
79048;BME280;68680;50.764;6.120;2023-09-19T06:05:59;-300319.09;;;40.44;100.00
79048;BME280;68680;50.764;6.120;2023-09-19T06:08:25;-301078.19;;;40.26;100.00
79048;BME280;68680;50.764;6.120;2023-09-19T06:10:51;-301378.91;;;40.18;100.00
79048;BME280;68680;50.764;6.120;2023-09-19T06:13:16;-301287.94;;;40.20;100.00
79048;BME280;68680;50.764;6.120;2023-09-19T06:15:42;-301088.53;;;40.25;100.00
79048;BME280;68680;50.764;6.120;2023-09-19T06:18:12;-301415.78;;;40.17;100.00
79048;BME280;68680;50.764;6.120;2023-09-19T06:20:37;-300978.75;;;40.28;100.00
79048;BME280;68680;50.764;6.120;2023-09-19T06:23:03;-301524.72;;;40.15;100.00
79048;BME280;68680;50.764;6.120;2023-09-19T06:25:29;-301859.78;;;40.07;100.00
79048;BME280;68680;50.764;6.120;2023-09-19T06:27:55;-302111.53;;;40.01;100.00
79048;BME280;68680;50.764;6.120;2023-09-19T06:30:22;-301885.56;;;40.06;100.00
79048;BME280;68680;50.764;6.120;2023-09-19T06:32:47;-301642.47;;;40.12;100.00
79048;BME280;68680;50.764;6.120;2023-09-19T06:35:16;-302120.50;;;40.01;100.00
79048;BME280;68680;50.764;6.120;2023-09-19T06:37:43;-301994.56;;;40.03;100.00
79048;BME280;68680;50.764;6.120;2023-09-19T06:40:10;-301714.69;;;40.10;100.00
79048;BME280;68680;50.764;6.120;2023-09-19T06:42:36;-302489.63;;;39.91;100.00
79048;BME280;68680;50.764;6.120;2023-09-19T06:45:03;-302345.78;;;39.95;100.00
79048;BME280;68680;50.764;6.120;2023-09-19T06:47:28;-303115.53;;;39.77;0.00
79048;BME280;68680;50.764;6.120;2023-09-19T06:49:54;-302116.06;;;40.01;100.00
79048;BME280;68680;50.764;6.120;2023-09-19T06:52:21;-302924.19;;;39.81;0.00
79048;BME280;68680;50.764;6.120;2023-09-19T06:54:48;-302696.97;;;39.87;100.00
79048;BME280;68680;50.764;6.120;2023-09-19T06:57:14;-302776.78;;;39.85;0.00
79048;BME280;68680;50.764;6.120;2023-09-19T06:59:40;-303088.44;;;39.78;0.00
79048;BME280;68680;50.764;6.120;2023-09-19T07:02:06;-303284.59;;;39.73;0.00
79048;BME280;68680;50.764;6.120;2023-09-19T07:04:32;-303622.59;;;39.65;0.00
79048;BME280;68680;50.764;6.120;2023-09-19T07:06:57;-303284.59;;;39.73;0.00
79048;BME280;68680;50.764;6.120;2023-09-19T07:09:25;-303773.47;;;39.61;0.00
79048;BME280;68680;50.764;6.120;2023-09-19T07:11:50;-303164.91;;;39.76;0.00
79048;BME280;68680;50.764;6.120;2023-09-19T07:14:16;-304107.59;;;39.52;0.00
79048;BME280;68680;50.764;6.120;2023-09-19T07:16:42;-303488.44;;;39.67;0.00
79048;BME280;68680;50.764;6.120;2023-09-19T07:19:08;-304238.84;;;39.49;0.00
79048;BME280;68680;50.764;6.120;2023-09-19T07:21:34;-304310.31;;;39.47;0.00
79048;BME280;68680;50.764;6.120;2023-09-19T07:24:00;-303825.34;;;39.59;0.00
79048;BME280;68680;50.764;6.120;2023-09-19T07:26:27;-304656.63;;;39.38;0.00
79048;BME280;68680;50.764;6.120;2023-09-19T07:28:53;-304787.06;;;39.35;0.00
79048;BME280;68680;50.764;6.120;2023-09-19T07:31:18;-304729.91;;;39.37;0.00
79048;BME280;68680;50.764;6.120;2023-09-19T07:33:44;-305057.88;;;39.28;0.00
79048;BME280;68680;50.764;6.120;2023-09-19T07:36:11;-305286.88;;;39.22;0.00
79048;BME280;68680;50.764;6.120;2023-09-19T07:38:36;-305443.34;;;39.18;0.00
79048;BME280;68680;50.764;6.120;2023-09-19T07:41:02;-305416.78;;;39.19;0.00
79048;BME280;68680;50.764;6.120;2023-09-19T07:43:29;-305642.09;;;39.13;0.00
79048;BME280;68680;50.764;6.120;2023-09-19T07:45:55;-305994.09;;;39.04;0.00
79048;BME280;68680;50.764;6.120;2023-09-19T07:48:21;-305589.53;;;39.14;0.00
79048;BME280;68680;50.764;6.120;2023-09-19T07:50:46;-305681.16;;;39.12;0.00
79048;BME280;68680;50.764;6.120;2023-09-19T07:53:12;-305425.75;;;39.19;0.00
79048;BME280;68680;50.764;6.120;2023-09-19T07:55:38;-305399.44;;;39.19;0.00
79048;BME280;68680;50.764;6.120;2023-09-19T07:58:04;-305862.13;;;39.08;0.00
79048;BME280;68680;50.764;6.120;2023-09-19T08:00:31;-305720.22;;;39.11;0.00
79048;BME280;68680;50.764;6.120;2023-09-19T08:02:57;-306408.09;;;38.95;0.00
79048;BME280;68680;50.764;6.120;2023-09-19T08:05:22;-306020.91;;;39.04;0.00
79048;BME280;68680;50.764;6.120;2023-09-19T08:07:48;-306271.03;;;38.97;0.00
79048;BME280;68680;50.764;6.120;2023-09-19T08:10:15;-306381.31;;;38.95;0.00
79048;BME280;68680;50.764;6.120;2023-09-19T08:12:42;-306894.41;;;38.82;0.00
79048;BME280;68680;50.764;6.120;2023-09-19T08:15:08;-307156.72;;;38.75;0.00
79048;BME280;68680;50.764;6.120;2023-09-19T08:17:36;-306394.69;;;38.95;0.00
79048;BME280;68680;50.764;6.120;2023-09-19T08:20:02;-306399.19;;;38.95;0.00
79048;BME280;68680;50.764;6.120;2023-09-19T08:22:27;-307242.16;;;38.73;0.00
79048;BME280;68680;50.764;6.120;2023-09-19T08:24:53;-307114.00;;;38.76;0.00
79048;BME280;68680;50.764;6.120;2023-09-19T08:27:19;-307003.50;;;38.79;0.00
79048;BME280;68680;50.764;6.120;2023-09-19T08:29:45;-307352.34;;;38.70;0.00
79048;BME280;68680;50.764;6.120;2023-09-19T08:32:10;-307805.97;;;38.58;0.00
79048;BME280;68680;50.764;6.120;2023-09-19T08:34:37;-308101.09;;;38.51;0.00
79048;BME280;68680;50.764;6.120;2023-09-19T08:37:03;-308466.69;;;38.41;0.00
79048;BME280;68680;50.764;6.120;2023-09-19T08:39:30;-308700.50;;;38.35;0.00
79048;BME280;68680;50.764;6.120;2023-09-19T08:41:58;-308434.34;;;38.42;0.00
79048;BME280;68680;50.764;6.120;2023-09-19T08:44:23;-308634.56;;;38.36;0.00
79048;BME280;68680;50.764;6.120;2023-09-19T08:46:52;-308389.06;;;38.43;0.00
79048;BME280;68680;50.764;6.120;2023-09-19T08:49:28;-308459.75;;;38.41;0.00
79048;BME280;68680;50.764;6.120;2023-09-19T08:52:07;-309113.00;;;38.23;0.00
79048;BME280;68680;50.764;6.120;2023-09-19T08:54:38;-309466.59;;;38.14;0.00
79048;BME280;68680;50.764;6.120;2023-09-19T08:57:07;-309754.88;;;38.06;0.00
79048;BME280;68680;50.764;6.120;2023-09-19T08:59:33;-309875.16;;;38.03;0.00
79048;BME280;68680;50.764;6.120;2023-09-19T09:02:00;-310216.09;;;37.93;0.00
79048;BME280;68680;50.764;6.120;2023-09-19T09:04:27;-310791.84;;;37.78;0.00
79048;BME280;68680;50.764;6.120;2023-09-19T09:06:54;-310275.63;;;37.92;0.00
79048;BME280;68680;50.764;6.120;2023-09-19T09:09:22;-310480.94;;;37.87;0.00
79048;BME280;68680;50.764;6.120;2023-09-19T09:11:48;-310168.38;;;37.95;0.00
79048;BME280;68680;50.764;6.120;2023-09-19T09:14:14;-309868.97;;;38.04;0.00
79048;BME280;68680;50.764;6.120;2023-09-19T09:16:40;-310113.03;;;37.97;0.00
79048;BME280;68680;50.764;6.120;2023-09-19T09:19:06;-310415.09;;;37.89;0.00
79048;BME280;68680;50.764;6.120;2023-09-19T09:21:32;-310453.44;;;37.88;0.00
79048;BME280;68680;50.764;6.120;2023-09-19T09:23:57;-310044.28;;;37.99;0.00
79048;BME280;68680;50.764;6.120;2023-09-19T09:26:42;-309934.19;;;38.02;0.00
79048;BME280;68680;50.764;6.120;2023-09-19T09:29:08;-310229.31;;;37.94;0.00
79048;BME280;68680;50.764;6.120;2023-09-19T09:31:34;-310776.06;;;37.80;0.00
79048;BME280;68680;50.764;6.120;2023-09-19T09:34:00;-310974.19;;;37.74;0.00
79048;BME280;68680;50.764;6.120;2023-09-19T09:36:36;-310932.91;;;37.75;0.00
79048;BME280;68680;50.764;6.120;2023-09-19T09:39:02;-310366.44;;;37.90;0.00
79048;BME280;68680;50.764;6.120;2023-09-19T09:41:36;-310480.22;;;37.88;0.00
79048;BME280;68680;50.764;6.120;2023-09-19T09:44:13;-310932.91;;;37.75;0.00
79048;BME280;68680;50.764;6.120;2023-09-19T09:46:43;-311658.97;;;37.55;0.00
79048;BME280;68680;50.764;6.120;2023-09-19T09:49:10;-311453.97;;;37.61;0.00
79048;BME280;68680;50.764;6.120;2023-09-19T09:51:36;-311598.56;;;37.57;0.00
79048;BME280;68680;50.764;6.120;2023-09-19T09:54:11;-311885.13;;;37.49;0.00
79048;BME280;68680;50.764;6.120;2023-09-19T09:56:53;-311930.47;;;37.48;0.00
79048;BME280;68680;50.764;6.120;2023-09-19T09:59:20;-311859.34;;;37.50;0.00
79048;BME280;68680;50.764;6.120;2023-09-19T10:01:47;-311652.91;;;37.55;0.00
79048;BME280;68680;50.764;6.120;2023-09-19T10:04:27;-312186.72;;;37.41;0.00
79048;BME280;68680;50.764;6.120;2023-09-19T10:06:53;-312168.91;;;37.41;0.00
79048;BME280;68680;50.764;6.120;2023-09-19T10:09:19;-312334.41;;;37.36;0.00
79048;BME280;68680;50.764;6.120;2023-09-19T10:11:47;-312693.28;;;37.26;0.00
79048;BME280;68680;50.764;6.120;2023-09-19T10:14:16;-312795.38;;;37.23;0.00
79048;BME280;68680;50.764;6.120;2023-09-19T10:16:46;-312958.28;;;37.19;0.00
79048;BME280;68680;50.764;6.120;2023-09-19T10:19:18;-313223.31;;;37.11;0.00
79048;BME280;68680;50.764;6.120;2023-09-19T10:21:46;-312834.84;;;37.22;0.00
79048;BME280;68680;50.764;6.120;2023-09-19T10:24:14;-312897.25;;;37.20;0.00
79048;BME280;68680;50.764;6.120;2023-09-19T10:26:41;-312646.59;;;37.28;0.00
79048;BME280;68680;50.764;6.120;2023-09-19T10:29:08;-312351.28;;;37.36;0.00
79048;BME280;68680;50.764;6.120;2023-09-19T10:31:38;-312405.00;;;37.35;0.00
79048;BME280;68680;50.764;6.120;2023-09-19T10:34:06;-312852.66;;;37.22;0.00
79048;BME280;68680;50.764;6.120;2023-09-19T10:36:34;-313188.66;;;37.13;0.00
79048;BME280;68680;50.764;6.120;2023-09-19T10:39:02;-313722.44;;;36.98;0.00
79048;BME280;68680;50.764;6.120;2023-09-19T10:41:31;-313835.50;;;36.94;0.00
79048;BME280;68680;50.764;6.120;2023-09-19T10:43:59;-313334.72;;;37.09;0.00
79048;BME280;68680;50.764;6.120;2023-09-19T10:46:25;-313419.91;;;37.06;0.00
79048;BME280;68680;50.764;6.120;2023-09-19T10:48:51;-313320.81;;;37.09;0.00
79048;BME280;68680;50.764;6.120;2023-09-19T10:51:22;-313587.38;;;37.01;0.00
79048;BME280;68680;50.764;6.120;2023-09-19T10:53:52;-314069.03;;;36.87;0.00
79048;BME280;68680;50.764;6.120;2023-09-19T10:56:24;-314164.81;;;36.84;0.00
79048;BME280;68680;50.764;6.120;2023-09-19T10:58:51;-314463.16;;;36.76;0.00
79048;BME280;68680;50.764;6.120;2023-09-19T11:01:17;-314596.03;;;36.72;0.00
79048;BME280;68680;50.764;6.120;2023-09-19T11:03:43;-314400.31;;;36.77;0.00
79048;BME280;68680;50.764;6.120;2023-09-19T11:06:12;-314087.44;;;36.86;0.00
79048;BME280;68680;50.764;6.120;2023-09-19T11:08:57;-313686.81;;;36.98;0.00
79048;BME280;68680;50.764;6.120;2023-09-19T11:11:41;-313238.47;;;37.10;0.00
79048;BME280;68680;50.764;6.120;2023-09-19T11:14:39;-313855.94;;;36.93;0.00
79048;BME280;68680;50.764;6.120;2023-09-19T11:17:41;-314285.09;;;36.81;0.00
79048;BME280;68680;50.764;6.120;2023-09-19T11:20:21;-314105.25;;;36.86;0.00
79048;BME280;68680;50.764;6.120;2023-09-19T11:23:18;-314810.38;;;36.65;0.00
79048;BME280;68680;50.764;6.120;2023-09-19T11:25:45;-314870.34;;;36.63;0.00
79048;BME280;68680;50.764;6.120;2023-09-19T11:28:33;-315045.34;;;36.59;0.00
79048;BME280;68680;50.764;6.120;2023-09-19T11:31:50;-315237.50;;;36.53;0.00
79048;BME280;68680;50.764;6.120;2023-09-19T11:34:38;-315084.72;;;36.58;0.00
79048;BME280;68680;50.764;6.120;2023-09-19T11:40:26;-315389.81;;;36.48;0.00
79048;BME280;68680;50.764;6.120;2023-09-19T11:42:52;-315729.03;;;36.39;0.00
79048;BME280;68680;50.764;6.120;2023-09-19T11:46:05;-315962.69;;;36.31;0.00
79048;BME280;68680;50.764;6.120;2023-09-19T11:48:32;-316313.06;;;36.21;0.00
79048;BME280;68680;50.764;6.120;2023-09-19T11:50:58;-316068.22;;;36.28;0.00
79048;BME280;68680;50.764;6.120;2023-09-19T11:53:31;-316585.13;;;36.13;1.27
79048;BME280;68680;50.764;6.120;2023-09-19T11:55:59;-316220.41;;;36.24;0.00
79048;BME280;68680;50.764;6.120;2023-09-19T11:58:25;-316805.25;;;36.06;14.90
79048;BME280;68680;50.764;6.120;2023-09-19T12:00:54;-316356.34;;;36.19;0.00
79048;BME280;68680;50.764;6.120;2023-09-19T12:03:22;-316718.91;;;36.09;12.98
79048;BME280;68680;50.764;6.120;2023-09-19T12:05:48;-316672.31;;;36.10;9.55
79048;BME280;68680;50.764;6.120;2023-09-19T12:08:15;-316785.34;;;36.07;14.77
79048;BME280;68680;50.764;6.120;2023-09-19T12:10:46;-317189.28;;;35.95;27.97
79048;BME280;68680;50.764;6.120;2023-09-19T12:13:17;-317325.34;;;35.91;33.07
79048;BME280;68680;50.764;6.120;2023-09-19T12:15:43;183352.25;;;35.72;59.59
79048;BME280;68680;50.764;6.120;2023-09-19T12:18:09;183375.63;;;35.72;60.56
79048;BME280;68680;50.764;6.120;2023-09-19T12:20:44;183309.38;;;35.70;61.29
79048;BME280;68680;50.764;6.120;2023-09-19T12:23:13;183266.50;;;35.68;66.05
79048;BME280;68680;50.764;6.120;2023-09-19T12:25:42;182908.81;;;35.52;0.00
79048;BME280;68680;50.764;6.120;2023-09-19T12:28:07;183164.22;;;35.63;74.54
79048;BME280;68680;50.764;6.120;2023-09-19T12:30:35;183084.03;;;35.60;75.33
79048;BME280;68680;50.764;6.120;2023-09-19T12:33:00;183195.72;;;35.65;70.59
79048;BME280;68680;50.764;6.120;2023-09-19T12:35:28;183161.44;;;35.63;70.37
79048;BME280;68680;50.764;6.120;2023-09-19T12:37:54;183171.06;;;35.64;69.04
79048;BME280;68680;50.764;6.120;2023-09-19T12:40:22;182898.97;;;35.52;0.00
79048;BME280;68680;50.764;6.120;2023-09-19T12:42:49;182733.63;;;35.45;0.00
79048;BME280;68680;50.764;6.120;2023-09-19T12:45:16;182835.47;;;35.49;0.00
79048;BME280;68680;50.764;6.120;2023-09-19T12:48:17;182501.88;;;35.35;0.00
79048;BME280;68680;50.764;6.120;2023-09-19T12:50:59;181831.53;;;35.06;0.00
79048;BME280;68680;50.764;6.120;2023-09-19T12:53:26;181631.41;;;34.97;0.00